Time;durP1;ratioP1;P1;durP2;ratioP2;P2;SDS_P1;SDS_P2;PMS_P1;PMS_P2;Temp;Humidity;BMP_temperature;BMP_pressure;BME280_temperature;BME280_humidity;BME280_pressure;Samples;Min_cycle;Max_cycle;Signal;HPM_P1;HPM_P2
2021/05/06 00:03:36;;;;;;;1.30;1.10;;;7.70;96.90;;;;;;5072504;28;20288;-47
2021/05/06 00:09:13;;;;;;;1.98;1.40;;;7.70;97.00;;;;;;5072455;28;20306;-46
2021/05/06 00:14:39;;;;;;;2.78;1.38;;;7.80;96.90;;;;;;5072032;28;20208;-45
2021/05/06 00:33:48;;;;;;;1.40;1.27;;;7.90;97.60;;;;;;5058865;28;20215;-48
2021/05/06 00:36:16;;;;;;;1.73;1.55;;;7.90;97.80;;;;;;5071751;28;20564;-51
2021/05/06 00:38:46;;;;;;;2.08;1.38;;;7.90;98.00;;;;;;5071755;28;20243;-47
2021/05/06 00:41:29;;;;;;;2.08;1.73;;;8.00;98.00;;;;;;5071743;28;20340;-48
2021/05/06 00:44:20;;;;;;;2.08;1.45;;;8.00;98.20;;;;;;5071977;28;20281;-51
2021/05/06 00:55:08;;;;;;;2.25;1.50;;;8.10;98.40;;;;;;5040689;28;20243;-47
2021/05/06 00:57:40;;;;;;;1.83;1.38;;;8.10;98.70;;;;;;5071815;28;20303;-51
2021/05/06 01:00:22;;;;;;;2.83;1.70;;;8.10;98.80;;;;;;5071703;28;20268;-52
2021/05/06 01:03:02;;;;;;;4.50;1.73;;;8.10;98.90;;;;;;5071823;28;20298;-48
2021/05/06 01:05:32;;;;;;;2.35;1.48;;;8.00;99.20;;;;;;5071696;28;20231;-48
2021/05/06 01:08:09;;;;;;;1.48;1.38;;;8.00;99.40;;;;;;5071730;28;20243;-50
2021/05/06 01:10:48;;;;;;;1.58;1.48;;;8.00;99.60;;;;;;5072793;28;20756;-50
2021/05/06 01:13:20;;;;;;;2.55;1.20;;;8.00;99.90;;;;;;5075468;28;20297;-47
2021/05/06 01:15:47;;;;;;;2.17;1.58;;;7.90;99.90;;;;;;5075332;28;20294;-47
2021/05/06 01:18:14;;;;;;;3.08;2.63;;;7.90;99.90;;;;;;5075189;28;20231;-50
2021/05/06 01:20:43;;;;;;;1.95;1.65;;;7.90;99.90;;;;;;5075056;28;20297;-49
2021/05/06 01:23:10;;;;;;;4.63;2.55;;;8.00;99.90;;;;;;5074741;28;20290;-50
2021/05/06 01:25:38;;;;;;;1.70;1.42;;;7.90;99.90;;;;;;5074925;28;20748;-48
2021/05/06 01:28:08;;;;;;;6.47;4.65;;;7.90;99.90;;;;;;5074836;28;20290;-47
2021/05/06 01:30:38;;;;;;;4.30;2.30;;;7.90;99.90;;;;;;5074852;28;20208;-51
2021/05/06 01:33:12;;;;;;;2.80;1.52;;;7.90;99.90;;;;;;5074816;28;20250;-48
2021/05/06 01:35:47;;;;;;;3.33;2.42;;;7.90;99.90;;;;;;5074915;28;20228;-49
2021/05/06 01:38:32;;;;;;;3.78;2.97;;;7.90;99.90;;;;;;5075077;28;20211;-52
2021/05/06 01:41:13;;;;;;;2.38;1.73;;;7.90;99.90;;;;;;5074789;28;20253;-48
2021/05/06 01:43:48;;;;;;;2.50;2.15;;;7.90;99.90;;;;;;5074537;28;20294;-51
2021/05/06 01:57:50;;;;;;;6.88;2.70;;;7.90;99.90;;;;;;5055952;28;20294;-51
2021/05/06 02:00:20;;;;;;;2.78;1.98;;;7.90;99.90;;;;;;5074489;28;20254;-45
2021/05/06 02:02:48;;;;;;;3.70;2.38;;;7.90;99.90;;;;;;5074310;28;20230;-45
2021/05/06 02:05:16;;;;;;;4.55;2.08;;;7.90;99.90;;;;;;5074444;28;20237;-46
2021/05/06 02:07:44;;;;;;;4.80;2.72;;;7.90;99.90;;;;;;5074561;28;20223;-46
2021/05/06 02:10:14;;;;;;;2.70;1.80;;;8.00;99.90;;;;;;5074394;28;20214;-51
2021/05/06 02:12:41;;;;;;;3.15;1.60;;;8.00;99.90;;;;;;5074472;28;20234;-47
2021/05/06 02:15:13;;;;;;;3.15;2.85;;;8.00;99.90;;;;;;5074275;28;20290;-48
2021/05/06 02:17:41;;;;;;;4.85;3.08;;;8.00;99.90;;;;;;5074483;28;20203;-50
2021/05/06 02:20:09;;;;;;;2.92;1.90;;;8.00;99.90;;;;;;5074164;28;20719;-47
2021/05/06 02:22:36;;;;;;;4.30;2.42;;;8.00;99.90;;;;;;5074067;28;20250;-47
2021/05/06 02:25:05;;;;;;;4.93;3.30;;;8.00;99.90;;;;;;5073766;28;20680;-48
2021/05/06 02:27:33;;;;;;;3.15;2.10;;;8.00;99.90;;;;;;5073948;28;20211;-46
2021/05/06 02:30:00;;;;;;;3.20;1.83;;;8.00;99.90;;;;;;5073939;28;20580;-49
2021/05/06 02:32:28;;;;;;;2.75;1.98;;;8.00;99.90;;;;;;5074156;28;20336;-51
2021/05/06 02:34:55;;;;;;;10.13;6.95;;;8.00;99.90;;;;;;5073968;28;20209;-48
2021/05/06 02:37:22;;;;;;;4.95;3.38;;;8.00;99.90;;;;;;5073980;28;20603;-47
2021/05/06 02:39:51;;;;;;;3.47;3.17;;;7.90;99.90;;;;;;5073713;28;20203;-45
2021/05/06 02:42:18;;;;;;;4.97;2.38;;;8.00;99.90;;;;;;5073749;28;20302;-46
2021/05/06 02:44:46;;;;;;;2.17;1.65;;;8.00;99.90;;;;;;5073478;28;20571;-44
2021/05/06 02:47:13;;;;;;;3.85;2.00;;;8.00;99.90;;;;;;5073474;28;20220;-44
2021/05/06 02:49:44;;;;;;;1.90;1.70;;;8.00;99.90;;;;;;5073706;28;20214;-46
2021/05/06 02:52:15;;;;;;;3.42;2.00;;;8.00;99.90;;;;;;5073738;28;20212;-45
2021/05/06 02:54:44;;;;;;;2.85;1.75;;;8.00;99.90;;;;;;5073871;28;20731;-47
2021/05/06 02:57:19;;;;;;;3.70;2.05;;;8.00;99.90;;;;;;5073362;28;20290;-45
2021/05/06 03:02:49;;;;;;;2.83;2.00;;;8.00;99.90;;;;;;5073368;28;20248;-46
2021/05/06 03:05:18;;;;;;;3.78;2.88;;;8.00;99.90;;;;;;5072975;28;20219;-47
2021/05/06 03:07:50;;;;;;;4.25;1.80;;;8.00;99.90;;;;;;5073404;28;20199;-45
2021/05/06 03:10:28;;;;;;;8.10;3.20;;;8.00;99.90;;;;;;5073393;28;20203;-43
2021/05/06 03:13:11;;;;;;;2.05;1.55;;;8.10;99.90;;;;;;5073108;28;20603;-48
2021/05/06 03:23:44;;;;;;;5.15;2.28;;;8.10;99.90;;;;;;5072735;28;20322;-44
2021/05/06 03:26:13;;;;;;;4.07;2.28;;;8.10;99.80;;;;;;5072706;28;20238;-45
2021/05/06 03:28:43;;;;;;;3.35;1.92;;;8.10;99.80;;;;;;5072637;28;20218;-45
2021/05/06 03:31:22;;;;;;;2.80;1.75;;;8.10;99.80;;;;;;5072936;28;20239;-45
2021/05/06 03:42:45;;;;;;;3.40;2.20;;;8.20;99.80;;;;;;5072347;28;20203;-46
2021/05/06 03:45:33;;;;;;;5.25;2.22;;;8.20;99.80;;;;;;5072418;28;20231;-45
2021/05/06 04:03:16;;;;;;;4.53;2.30;;;8.20;99.70;;;;;;5047029;28;20245;-45
2021/05/06 04:14:22;;;;;;;3.63;2.08;;;8.20;99.90;;;;;;5072394;28;20214;-46
2021/05/06 04:16:37;;;;;;;4.10;1.85;;;8.20;99.90;;;;;;5071955;28;20214;-49
2021/05/06 04:19:11;;;;;;;3.47;2.30;;;8.20;99.90;;;;;;5072266;28;20230;-46
2021/05/06 04:21:55;;;;;;;4.72;2.83;;;8.20;99.90;;;;;;5071983;28;20247;-46
2021/05/06 04:27:12;;;;;;;8.65;4.05;;;8.30;99.90;;;;;;5071956;28;20253;-52
2021/05/06 04:38:10;;;;;;;5.43;3.67;;;8.50;99.90;;;;;;5009770;28;20213;-48
2021/05/06 04:41:12;;;;;;;4.88;3.15;;;8.50;99.90;;;;;;5057693;28;20238;-49
2021/05/06 04:54:47;;;;;;;4.80;2.72;;;8.70;99.90;;;;;;5075757;28;20296;-48
2021/05/06 05:05:31;;;;;;;2.03;1.83;;;8.70;99.90;;;;;;5075397;28;20234;-49
2021/05/06 05:08:04;;;;;;;3.10;2.08;;;8.80;99.90;;;;;;5075210;28;20214;-49
2021/05/06 05:10:42;;;;;;;5.82;3.08;;;8.80;99.90;;;;;;5075102;28;20233;-53
2021/05/06 05:24:25;;;;;;;4.10;2.22;;;9.40;99.30;;;;;;5074979;28;20239;-49
2021/05/06 05:26:53;;;;;;;3.17;2.22;;;9.60;99.10;;;;;;5075094;28;20250;-51
2021/05/06 05:29:20;;;;;;;3.55;3.00;;;9.60;98.70;;;;;;5075017;28;20204;-50
2021/05/06 05:31:47;;;;;;;2.55;2.28;;;9.60;98.50;;;;;;5074859;28;20211;-52
2021/05/06 05:34:26;;;;;;;5.75;3.08;;;9.70;98.50;;;;;;5075160;28;20233;-47
2021/05/06 05:36:55;;;;;;;6.63;2.88;;;9.80;98.40;;;;;;5075092;28;20206;-46
2021/05/06 05:39:29;;;;;;;3.72;2.40;;;9.90;98.30;;;;;;5075007;28;20276;-49
2021/05/06 05:42:09;;;;;;;3.03;1.73;;;10.00;98.00;;;;;;5075088;28;20298;-50
2021/05/06 05:55:29;;;;;;;8.15;2.38;;;10.40;97.50;;;;;;5074617;28;20567;-47
2021/05/06 05:57:56;;;;;;;6.60;2.35;;;10.50;97.20;;;;;;5074276;28;20327;-50
2021/05/06 06:00:23;;;;;;;4.70;2.70;;;10.50;97.10;;;;;;5074369;28;20298;-47
2021/05/06 06:02:53;;;;;;;3.08;2.50;;;10.50;97.10;;;;;;5074733;28;20243;-45
2021/05/06 06:05:20;;;;;;;3.00;2.15;;;10.60;97.10;;;;;;5074413;28;20317;-49
2021/05/06 06:07:47;;;;;;;4.90;2.92;;;10.70;97.20;;;;;;5074364;28;20298;-45
2021/05/06 06:10:14;;;;;;;6.93;2.83;;;10.80;97.30;;;;;;5074445;28;20231;-46
2021/05/06 06:12:41;;;;;;;4.88;3.33;;;10.80;97.10;;;;;;5074293;28;20298;-48
2021/05/06 06:15:14;;;;;;;4.80;2.75;;;11.00;96.90;;;;;;5074385;28;20615;-45
2021/05/06 06:17:43;;;;;;;6.60;2.80;;;11.10;96.70;;;;;;5074262;28;20221;-45
2021/05/06 06:20:11;;;;;;;6.85;3.47;;;11.30;96.50;;;;;;5074387;28;20229;-46
2021/05/06 06:22:38;;;;;;;5.35;3.00;;;11.40;96.40;;;;;;5074260;28;20245;-47
2021/05/06 06:25:06;;;;;;;5.22;2.40;;;11.50;96.10;;;;;;5073705;28;20270;-50
2021/05/06 06:27:33;;;;;;;8.20;4.93;;;11.60;95.90;;;;;;5073925;28;20303;-46
2021/05/06 06:30:01;;;;;;;4.90;2.60;;;11.60;95.90;;;;;;5074179;28;20215;-44
2021/05/06 06:32:29;;;;;;;5.45;3.22;;;11.60;95.90;;;;;;5074041;28;20207;-45
2021/05/06 06:34:56;;;;;;;7.85;2.75;;;11.60;95.90;;;;;;5073844;28;20610;-46
2021/05/06 06:37:23;;;;;;;7.07;3.20;;;11.60;96.00;;;;;;5073755;28;20211;-45
2021/05/06 06:39:51;;;;;;;7.00;2.75;;;11.60;95.80;;;;;;5073683;28;20273;-44
2021/05/06 06:42:18;;;;;;;3.33;2.60;;;11.70;95.80;;;;;;5073876;28;20238;-48
2021/05/06 06:44:45;;;;;;;6.97;2.25;;;11.70;96.00;;;;;;5073428;28;20315;-46
2021/05/06 06:47:12;;;;;;;4.72;2.53;;;11.70;95.50;;;;;;5073699;28;20207;-43
2021/05/06 06:49:42;;;;;;;3.50;2.58;;;11.70;95.60;;;;;;5073187;28;20294;-42
2021/05/06 06:52:10;;;;;;;4.63;3.28;;;11.70;95.50;;;;;;5073115;28;20314;-43
2021/05/06 06:54:38;;;;;;;6.20;2.72;;;11.80;95.40;;;;;;5072813;28;20231;-43
2021/05/06 06:57:08;;;;;;;3.80;2.08;;;11.90;95.20;;;;;;5073077;28;20210;-43
2021/05/06 06:59:35;;;;;;;7.55;2.88;;;12.10;94.90;;;;;;5072892;28;20203;-46
2021/05/06 07:02:02;;;;;;;3.08;1.85;;;12.20;94.70;;;;;;5072812;28;20289;-41
2021/05/06 07:04:31;;;;;;;6.78;2.80;;;12.40;94.40;;;;;;5072612;28;20207;-40
2021/05/06 07:06:59;;;;;;;5.72;2.60;;;12.60;94.10;;;;;;5072505;28;20250;-45
2021/05/06 07:09:25;;;;;;;4.28;2.40;;;12.70;93.40;;;;;;5071962;28;20317;-45
2021/05/06 07:11:52;;;;;;;5.20;2.13;;;12.60;93.40;;;;;;5072912;28;20207;-45
2021/05/06 07:14:19;;;;;;;4.15;1.98;;;12.60;93.40;;;;;;5072667;28;20242;-44
2021/05/06 07:16:55;;;;;;;6.88;2.83;;;12.60;93.40;;;;;;5072839;28;20229;-43
2021/05/06 07:19:23;;;;;;;4.20;2.22;;;12.90;92.80;;;;;;5072637;28;20302;-45
2021/05/06 07:21:50;;;;;;;4.45;2.05;;;13.00;91.90;;;;;;5072743;28;20230;-44
2021/05/06 07:24:18;;;;;;;4.53;1.95;;;12.90;91.70;;;;;;5072547;28;20327;-42
2021/05/06 07:26:50;;;;;;;5.78;2.40;;;12.80;91.30;;;;;;5072566;28;20624;-49
2021/05/06 07:29:20;;;;;;;3.75;2.00;;;12.60;91.60;;;;;;5072658;28;20258;-48
2021/05/06 07:31:50;;;;;;;5.90;2.60;;;12.50;91.70;;;;;;5072577;28;20325;-48
2021/05/06 07:34:20;;;;;;;4.15;2.08;;;12.40;91.60;;;;;;5072421;28;20242;-47
2021/05/06 07:36:49;;;;;;;3.90;2.30;;;12.30;91.40;;;;;;5072317;28;20199;-49
2021/05/06 07:39:18;;;;;;;4.03;1.98;;;12.20;91.20;;;;;;5072380;28;20207;-46
2021/05/06 07:41:47;;;;;;;5.40;1.83;;;12.00;91.30;;;;;;5072331;28;20211;-51
2021/05/06 07:44:17;;;;;;;2.85;2.05;;;11.90;90.90;;;;;;5072360;28;20249;-47
2021/05/06 07:46:46;;;;;;;2.78;1.77;;;11.80;90.90;;;;;;5071950;28;20234;-47
2021/05/06 07:49:18;;;;;;;3.42;1.80;;;11.80;90.80;;;;;;5072324;28;20203;-46
2021/05/06 07:51:48;;;;;;;4.40;2.20;;;11.90;90.20;;;;;;5072075;28;20207;-44
2021/05/06 07:54:18;;;;;;;2.72;1.70;;;11.90;90.30;;;;;;5072029;28;20234;-44
2021/05/06 07:56:48;;;;;;;2.38;2.00;;;11.90;90.30;;;;;;5071985;28;20671;-47
2021/05/06 07:59:15;;;;;;;4.70;2.55;;;12.10;89.80;;;;;;5072183;28;20222;-44
2021/05/06 08:01:42;;;;;;;6.38;2.30;;;12.20;89.20;;;;;;5072280;28;20575;-45
2021/05/06 08:04:09;;;;;;;4.82;2.13;;;12.20;88.40;;;;;;5072279;28;20218;-46
2021/05/06 08:06:36;;;;;;;6.43;1.98;;;12.30;87.40;;;;;;5071874;28;20237;-44
2021/05/06 08:09:04;;;;;;;3.75;2.00;;;12.20;86.80;;;;;;5072022;28;20297;-49
2021/05/06 08:11:32;;;;;;;3.80;1.60;;;12.20;86.10;;;;;;5071881;28;20248;-46
2021/05/06 08:13:59;;;;;;;5.78;2.35;;;12.20;85.90;;;;;;5071944;28;20306;-47
2021/05/06 08:16:26;;;;;;;4.40;2.30;;;12.20;85.00;;;;;;5071928;28;20203;-45
2021/05/06 08:18:53;;;;;;;13.40;6.43;;;12.20;84.90;;;;;;5071591;28;20250;-47
2021/05/06 08:21:20;;;;;;;6.80;2.75;;;12.30;85.10;;;;;;5071588;28;20281;-49
2021/05/06 08:23:47;;;;;;;6.65;2.20;;;12.50;84.50;;;;;;5071178;28;20409;-49
2021/05/06 08:26:14;;;;;;;2.65;2.05;;;12.60;84.00;;;;;;5071145;28;20312;-45
2021/05/06 08:28:50;;;;;;;5.18;2.15;;;12.90;83.70;;;;;;5071469;28;20719;-42
2021/05/06 08:31:17;;;;;;;3.35;2.22;;;13.20;82.80;;;;;;5071660;28;20221;-42
2021/05/06 08:33:44;;;;;;;4.85;2.15;;;13.40;82.20;;;;;;5071841;28;20211;-42
2021/05/06 08:36:11;;;;;;;6.82;2.03;;;13.70;81.20;;;;;;5071871;28;20199;-43
2021/05/06 08:38:40;;;;;;;5.40;2.33;;;14.00;80.40;;;;;;5071668;28;20253;-44
2021/05/06 08:41:07;;;;;;;4.32;2.35;;;14.10;80.10;;;;;;5071887;28;20264;-45
2021/05/06 08:43:39;;;;;;;3.03;2.33;;;14.20;79.20;;;;;;5071736;28;20612;-45
2021/05/06 08:46:07;;;;;;;3.60;2.17;;;14.30;78.50;;;;;;5071588;28;20266;-48
2021/05/06 08:48:54;;;;;;;3.00;1.58;;;14.30;78.60;;;;;;5071684;28;20207;-46
2021/05/06 08:51:23;;;;;;;8.43;5.13;;;14.40;78.10;;;;;;5071753;28;20214;-47
2021/05/06 08:53:50;;;;;;;6.78;3.22;;;14.50;77.80;;;;;;5071914;28;20432;-46
2021/05/06 08:56:17;;;;;;;5.88;2.00;;;14.60;77.50;;;;;;5071863;28;20631;-45
2021/05/06 08:58:44;;;;;;;5.32;1.75;;;14.80;76.90;;;;;;5071518;28;20221;-46
2021/05/06 09:01:12;;;;;;;4.30;2.38;;;14.90;76.60;;;;;;5071776;28;20598;-51
2021/05/06 09:03:39;;;;;;;1.80;1.45;;;14.80;76.30;;;;;;5071451;28;20270;-49
2021/05/06 09:06:12;;;;;;;4.05;1.83;;;14.70;76.30;;;;;;5071677;28;20651;-50
2021/05/06 09:08:41;;;;;;;4.03;1.63;;;14.50;76.30;;;;;;5071572;28;20207;-47
2021/05/06 09:11:08;;;;;;;5.63;3.10;;;14.30;77.60;;;;;;5071532;28;20553;-45
2021/05/06 09:13:36;;;;;;;6.35;2.15;;;14.20;77.30;;;;;;5071498;28;20238;-45
2021/05/06 09:16:04;;;;;;;5.38;2.50;;;14.20;77.20;;;;;;5071343;28;20208;-47
2021/05/06 09:18:40;;;;;;;6.25;2.13;;;14.20;77.20;;;;;;5071384;28;20666;-47
2021/05/06 09:21:10;;;;;;;5.47;1.90;;;14.20;76.90;;;;;;5071552;28;20242;-44
2021/05/06 09:23:37;;;;;;;2.35;2.15;;;14.10;76.60;;;;;;5071236;28;20243;-47
2021/05/06 09:26:06;;;;;;;4.65;3.22;;;14.00;76.60;;;;;;5071839;28;20290;-47
2021/05/06 09:28:35;;;;;;;3.00;1.90;;;14.00;77.00;;;;;;5071750;28;20211;-49
2021/05/06 09:31:05;;;;;;;3.85;2.10;;;14.00;76.90;;;;;;5071882;28;20343;-52
2021/05/06 09:33:35;;;;;;;3.33;1.95;;;14.00;76.70;;;;;;5074852;28;20303;-50
2021/05/06 09:36:12;;;;;;;10.85;5.78;;;14.00;76.80;;;;;;5074901;28;20253;-49
2021/05/06 09:38:42;;;;;;;4.50;1.85;;;14.00;77.00;;;;;;5074992;28;20245;-53
2021/05/06 09:41:10;;;;;;;2.80;1.77;;;14.10;76.70;;;;;;5074758;28;20663;-48
2021/05/06 09:43:39;;;;;;;5.45;1.85;;;14.10;76.60;;;;;;5074066;28;20215;-49
2021/05/06 09:46:29;;;;;;;6.13;2.25;;;14.10;76.30;;;;;;5074393;28;20232;-48
2021/05/06 09:49:01;;;;;;;2.00;1.52;;;13.90;76.30;;;;;;5074497;28;20253;-48
2021/05/06 09:51:39;;;;;;;4.10;1.92;;;13.90;76.40;;;;;;5074484;28;20277;-46
2021/05/06 09:54:09;;;;;;;4.65;1.70;;;13.80;75.90;;;;;;5074661;28;20218;-48
2021/05/06 09:56:37;;;;;;;4.80;1.77;;;13.70;76.60;;;;;;5074524;28;20207;-49
2021/05/06 09:59:05;;;;;;;5.85;2.00;;;13.50;76.20;;;;;;5074269;28;20207;-45
2021/05/06 10:01:37;;;;;;;3.05;1.70;;;13.40;76.60;;;;;;5074312;28;20246;-46
2021/05/06 10:04:19;;;;;;;5.85;2.95;;;13.40;76.70;;;;;;5074395;28;20698;-46
2021/05/06 10:07:06;;;;;;;3.40;1.75;;;13.30;76.90;;;;;;5074060;28;20315;-48
2021/05/06 10:09:54;;;;;;;5.57;3.58;;;13.30;76.80;;;;;;5074255;28;20661;-48
2021/05/06 10:12:23;;;;;;;3.17;2.10;;;13.20;77.10;;;;;;5074069;28;20253;-51
2021/05/06 10:14:50;;;;;;;5.05;1.90;;;13.10;77.30;;;;;;5074032;28;20221;-50
2021/05/06 10:17:19;;;;;;;6.80;2.05;;;13.10;77.40;;;;;;5074015;28;20522;-45
2021/05/06 10:19:47;;;;;;;6.43;2.55;;;13.10;78.10;;;;;;5074334;28;20219;-46
2021/05/06 10:22:17;;;;;;;7.57;6.22;;;13.00;77.80;;;;;;5073743;28;20234;-46
2021/05/06 10:24:45;;;;;;;4.90;2.47;;;13.00;78.50;;;;;;5073835;28;20271;-47
2021/05/06 10:27:14;;;;;;;3.88;1.90;;;12.90;78.10;;;;;;5074038;28;20314;-48
2021/05/06 10:29:42;;;;;;;4.65;1.40;;;12.90;78.20;;;;;;5074019;28;20317;-48
2021/05/06 10:32:12;;;;;;;5.55;2.25;;;12.80;78.40;;;;;;5074160;28;20290;-48
2021/05/06 10:34:41;;;;;;;3.92;1.85;;;12.70;79.10;;;;;;5073646;28;20207;-49
2021/05/06 10:37:08;;;;;;;4.30;2.25;;;12.70;79.60;;;;;;5073613;28;20736;-48
2021/05/06 10:39:40;;;;;;;2.70;1.80;;;12.60;80.30;;;;;;5073622;28;20254;-47
2021/05/06 10:42:33;;;;;;;3.30;1.50;;;12.60;81.10;;;;;;5073551;28;20260;-46
2021/05/06 10:45:03;;;;;;;5.85;1.92;;;12.70;82.90;;;;;;5073618;28;20280;-47
2021/05/06 10:47:53;;;;;;;3.97;1.73;;;12.70;82.60;;;;;;5073556;28;20723;-48
2021/05/06 10:50:22;;;;;;;4.80;2.10;;;12.70;84.30;;;;;;5073479;28;20693;-48
2021/05/06 10:52:51;;;;;;;5.25;1.98;;;12.80;84.30;;;;;;5073396;28;20211;-47
2021/05/06 10:55:40;;;;;;;5.22;2.00;;;12.80;84.70;;;;;;5073644;28;20215;-50
2021/05/06 10:58:36;;;;;;;2.72;2.03;;;12.90;85.00;;;;;;5073103;28;20208;-46
2021/05/06 11:01:23;;;;;;;4.15;1.80;;;12.90;84.20;;;;;;5073177;28;20756;-47
2021/05/06 11:04:04;;;;;;;3.83;1.88;;;12.80;84.00;;;;;;5073463;28;20264;-48
2021/05/06 11:06:49;;;;;;;2.20;1.60;;;12.80;85.50;;;;;;5072773;28;20258;-46
2021/05/06 11:09:56;;;;;;;3.72;1.98;;;12.90;86.30;;;;;;5073114;28;20337;-46
2021/05/06 11:12:35;;;;;;;3.95;2.00;;;12.80;88.10;;;;;;5072905;28;20286;-47
2021/05/06 11:15:28;;;;;;;4.22;1.98;;;12.70;87.30;;;;;;5092880;28;20221;-48
2021/05/06 11:18:00;;;;;;;3.42;1.50;;;12.60;89.10;;;;;;5092995;28;20657;-46
2021/05/06 11:20:47;;;;;;;4.95;2.03;;;12.60;89.30;;;;;;5092991;28;20256;-47
2021/05/06 11:23:32;;;;;;;2.70;2.45;;;12.60;90.20;;;;;;5072158;28;20498;-45
2021/05/06 11:26:05;;;;;;;4.38;2.10;;;12.50;90.60;;;;;;5072470;28;20677;-50
2021/05/06 11:28:49;;;;;;;5.95;1.67;;;12.40;90.90;;;;;;5072460;28;20211;-47
2021/05/06 11:31:47;;;;;;;2.63;2.20;;;12.40;91.30;;;;;;5072143;28;20298;-50
2021/05/06 11:34:42;;;;;;;3.15;2.40;;;12.30;91.80;;;;;;5072365;28;20636;-50
2021/05/06 11:37:15;;;;;;;3.90;3.53;;;12.20;92.10;;;;;;5072464;28;20204;-46
2021/05/06 11:39:55;;;;;;;5.18;2.90;;;12.20;92.30;;;;;;5072508;28;20234;-48
2021/05/06 11:42:23;;;;;;;2.17;1.90;;;12.10;92.60;;;;;;5072403;28;20206;-47
2021/05/06 11:45:13;;;;;;;2.95;2.03;;;12.10;92.80;;;;;;5072250;28;20271;-45
2021/05/06 11:47:41;;;;;;;2.63;2.20;;;12.00;93.50;;;;;;5072236;28;20542;-47
2021/05/06 11:50:26;;;;;;;4.57;2.15;;;12.00;93.50;;;;;;5072549;28;20246;-48
2021/05/06 11:52:54;;;;;;;3.67;2.47;;;12.00;93.90;;;;;;5072968;28;20247;-46
2021/05/06 11:55:29;;;;;;;3.10;2.55;;;12.00;93.90;;;;;;5083378;28;20214;-44
2021/05/06 11:57:56;;;;;;;2.50;2.20;;;12.00;94.20;;;;;;5091984;28;20301;-49
2021/05/06 12:00:29;;;;;;;4.97;3.47;;;12.10;94.40;;;;;;5092045;28;20340;-49
2021/05/06 12:03:02;;;;;;;4.30;2.40;;;12.20;94.50;;;;;;5091983;28;20688;-47
2021/05/06 12:05:56;;;;;;;3.20;2.15;;;12.20;94.80;;;;;;5091760;28;20262;-47
2021/05/06 12:08:25;;;;;;;4.40;2.90;;;12.30;95.70;;;;;;5092081;28;20238;-46
2021/05/06 12:10:54;;;;;;;3.70;2.25;;;12.40;95.40;;;;;;5091954;28;20672;-45
2021/05/06 12:13:29;;;;;;;4.07;2.10;;;12.40;95.50;;;;;;5091629;28;20236;-47
2021/05/06 12:16:18;;;;;;;4.43;2.05;;;12.40;95.80;;;;;;5091660;28;20217;-49
2021/05/06 12:19:04;;;;;;;3.25;1.95;;;12.50;96.40;;;;;;5091428;28;20264;-49
2021/05/06 12:21:42;;;;;;;2.55;2.35;;;12.50;96.50;;;;;;5091675;28;20371;-47
2021/05/06 12:24:11;;;;;;;5.47;3.53;;;12.50;96.80;;;;;;5091620;28;20281;-44
2021/05/06 12:26:41;;;;;;;4.07;2.55;;;12.30;96.80;;;;;;5091584;28;20692;-47
2021/05/06 12:29:19;;;;;;;2.97;2.20;;;12.30;97.10;;;;;;5091454;28;20210;-48
2021/05/06 12:31:49;;;;;;;4.97;2.92;;;12.20;97.60;;;;;;5091783;28;20217;-46
2021/05/06 12:34:19;;;;;;;3.03;2.10;;;12.10;97.60;;;;;;5092308;28;20521;-47
2021/05/06 12:36:51;;;;;;;3.75;2.13;;;12.10;97.60;;;;;;5092095;28;20199;-46
2021/05/06 12:39:19;;;;;;;4.90;3.10;;;12.10;97.70;;;;;;5092167;28;20207;-46
2021/05/06 12:41:55;;;;;;;3.20;2.30;;;12.00;97.80;;;;;;5092036;28;20290;-45
2021/05/06 12:44:41;;;;;;;3.03;2.25;;;11.90;98.10;;;;;;5092006;28;20210;-45
2021/05/06 12:47:20;;;;;;;3.55;2.33;;;11.90;98.20;;;;;;5091817;28;20222;-45
2021/05/06 12:49:50;;;;;;;4.13;2.47;;;11.90;98.50;;;;;;5091883;28;20237;-45
2021/05/06 12:52:32;;;;;;;3.42;2.60;;;11.90;98.50;;;;;;5091763;28;20238;-44
2021/05/06 12:55:02;;;;;;;8.73;7.00;;;12.00;98.80;;;;;;5091518;28;20238;-50
2021/05/06 12:57:30;;;;;;;11.85;7.57;;;12.10;98.60;;;;;;5091909;28;20207;-47
2021/05/06 13:00:16;;;;;;;11.05;8.27;;;12.10;98.50;;;;;;5091635;28;20293;-46
2021/05/06 13:02:44;;;;;;;4.13;2.67;;;12.10;98.80;;;;;;5091573;28;20633;-46
2021/05/06 13:05:12;;;;;;;5.32;3.17;;;12.20;98.80;;;;;;5091325;28;20400;-46
2021/05/06 13:08:00;;;;;;;3.10;2.47;;;12.20;98.80;;;;;;5094464;28;20735;-48
2021/05/06 13:10:29;;;;;;;4.30;1.95;;;12.20;99.30;;;;;;5092407;28;20234;-47
2021/05/06 13:13:04;;;;;;;2.90;2.15;;;12.20;99.20;;;;;;5095436;28;20707;-45
2021/05/06 13:15:45;;;;;;;2.90;2.45;;;12.30;99.20;;;;;;5095317;28;20211;-46
2021/05/06 13:18:13;;;;;;;2.70;2.15;;;12.20;99.40;;;;;;5095451;28;20210;-46
2021/05/06 13:20:40;;;;;;;2.60;2.40;;;12.20;99.50;;;;;;5095440;28;20203;-46
2021/05/06 13:23:09;;;;;;;5.18;2.50;;;12.20;99.60;;;;;;5095198;28;20567;-47
2021/05/06 13:25:44;;;;;;;5.80;2.53;;;12.20;99.80;;;;;;5095050;28;20202;-45
2021/05/06 13:28:14;;;;;;;4.18;3.00;;;12.30;99.90;;;;;;5095071;28;20206;-46
2021/05/06 13:30:42;;;;;;;3.63;2.22;;;12.30;99.80;;;;;;5095019;28;20669;-45
2021/05/06 13:33:18;;;;;;;5.13;2.78;;;12.40;99.70;;;;;;5094678;28;20206;-44
2021/05/06 13:36:02;;;;;;;3.28;2.97;;;12.40;99.70;;;;;;5095078;28;20215;-45
2021/05/06 13:38:47;;;;;;;5.57;2.58;;;12.30;99.60;;;;;;5094747;28;20249;-46
2021/05/06 13:41:14;;;;;;;4.00;2.30;;;12.30;99.80;;;;;;5094820;28;20252;-48
2021/05/06 13:43:42;;;;;;;3.92;2.55;;;12.30;99.90;;;;;;5095037;28;20257;-47
2021/05/06 13:46:09;;;;;;;2.63;2.00;;;12.20;99.90;;;;;;5094646;28;20233;-46
2021/05/06 13:48:37;;;;;;;2.83;1.88;;;12.20;99.90;;;;;;5094616;28;20668;-49
2021/05/06 13:51:05;;;;;;;5.10;2.88;;;12.20;99.90;;;;;;5094590;28;20257;-50
2021/05/06 13:53:32;;;;;;;5.00;4.35;;;12.20;99.90;;;;;;5094632;28;20213;-45
2021/05/06 13:55:59;;;;;;;3.67;2.92;;;12.20;99.90;;;;;;5094783;28;20203;-48
2021/05/06 13:58:25;;;;;;;3.22;2.25;;;12.30;99.90;;;;;;5094825;28;20294;-46
2021/05/06 14:00:52;;;;;;;3.75;3.05;;;12.30;99.90;;;;;;5094523;28;20393;-49
2021/05/06 14:03:24;;;;;;;4.88;2.97;;;12.20;99.90;;;;;;5094618;28;20264;-49
2021/05/06 14:05:52;;;;;;;5.10;3.97;;;12.10;99.90;;;;;;5094233;28;20262;-45
2021/05/06 14:08:19;;;;;;;4.47;3.28;;;12.00;99.90;;;;;;5094652;28;20242;-47
2021/05/06 14:10:47;;;;;;;4.22;3.22;;;11.90;99.90;;;;;;5094531;28;20313;-49
2021/05/06 14:13:15;;;;;;;3.45;2.97;;;11.80;99.90;;;;;;5094457;28;20207;-49
2021/05/06 14:15:42;;;;;;;3.03;2.72;;;11.80;99.90;;;;;;5094288;28;20234;-45
2021/05/06 14:18:10;;;;;;;5.38;3.33;;;11.70;99.90;;;;;;5093765;28;20700;-49
2021/05/06 14:20:38;;;;;;;4.85;2.90;;;11.70;99.90;;;;;;5094377;28;20206;-47
2021/05/06 14:23:06;;;;;;;4.88;3.47;;;11.70;99.90;;;;;;5094123;28;20249;-47
2021/05/06 14:25:33;;;;;;;8.15;5.57;;;11.70;99.90;;;;;;5094093;28;20238;-45
2021/05/06 14:28:02;;;;;;;12.82;7.72;;;11.70;99.90;;;;;;5093419;28;20290;-47
2021/05/06 14:30:29;;;;;;;9.95;4.70;;;11.70;99.90;;;;;;5093918;28;20297;-46
2021/05/06 14:32:56;;;;;;;6.70;3.60;;;11.60;99.90;;;;;;5093802;28;20371;-49
2021/05/06 14:35:24;;;;;;;7.28;4.35;;;11.60;99.90;;;;;;5093995;28;20203;-46
2021/05/06 14:37:53;;;;;;;5.43;3.40;;;11.60;99.90;;;;;;5093883;28;20238;-45
2021/05/06 14:40:21;;;;;;;6.97;5.28;;;11.60;99.90;;;;;;5093889;28;20294;-45
2021/05/06 14:42:48;;;;;;;7.07;3.90;;;11.50;99.90;;;;;;5093632;28;20547;-46
2021/05/06 14:45:16;;;;;;;11.07;6.85;;;11.40;99.90;;;;;;5093940;28;20306;-44
2021/05/06 14:47:43;;;;;;;4.47;3.67;;;11.40;99.90;;;;;;5093272;28;20223;-48
2021/05/06 14:50:13;;;;;;;3.55;2.88;;;11.40;99.90;;;;;;5093326;28;20240;-46
2021/05/06 14:52:40;;;;;;;6.30;4.32;;;11.50;99.90;;;;;;5093547;28;20262;-43
2021/05/06 14:55:11;;;;;;;6.15;3.65;;;11.50;99.90;;;;;;5093234;28;20238;-45
2021/05/06 14:57:40;;;;;;;7.95;5.28;;;11.50;99.90;;;;;;5093110;28;20240;-46
2021/05/06 15:00:09;;;;;;;6.85;4.70;;;11.40;99.90;;;;;;5093276;28;20302;-50
2021/05/06 15:02:37;;;;;;;3.97;3.13;;;11.40;99.90;;;;;;5093266;28;20238;-45
2021/05/06 15:05:06;;;;;;;4.70;3.50;;;11.40;99.90;;;;;;5093364;28;20579;-45
2021/05/06 15:07:33;;;;;;;3.13;2.60;;;11.40;99.90;;;;;;5093341;28;20630;-46
2021/05/06 15:10:00;;;;;;;11.02;4.88;;;11.30;99.90;;;;;;5092967;28;20207;-46
2021/05/06 15:12:27;;;;;;;6.60;3.40;;;11.30;99.90;;;;;;5093352;28;20606;-47
2021/05/06 15:14:55;;;;;;;9.95;5.85;;;11.20;99.90;;;;;;5093412;28;20286;-47
2021/05/06 15:17:22;;;;;;;5.90;3.97;;;11.10;99.90;;;;;;5093280;28;20202;-45
2021/05/06 15:19:52;;;;;;;4.28;2.25;;;11.10;99.90;;;;;;5093055;28;20353;-45
2021/05/06 15:22:19;;;;;;;7.25;3.40;;;11.00;99.90;;;;;;5092904;28;20210;-50
2021/05/06 15:24:53;;;;;;;6.53;4.22;;;11.00;99.90;;;;;;5092648;28;20238;-46
2021/05/06 15:27:20;;;;;;;5.07;3.45;;;10.90;99.90;;;;;;5092945;28;20226;-44
2021/05/06 15:29:48;;;;;;;6.07;4.30;;;10.80;99.90;;;;;;5092061;28;20673;-44
2021/05/06 15:32:16;;;;;;;3.58;2.70;;;10.70;99.90;;;;;;5093139;28;20347;-44
2021/05/06 15:34:43;;;;;;;3.45;2.88;;;10.60;99.90;;;;;;5092790;28;20206;-44